Sunday, December 17, 2017, 4:19 PM EST
Back to Local

KMSV, Monticello, Sullivan County International Airport

Location: Swan Lake, NY, United States Lat: 41.7
Local Time: 4:19 PM EST (21:19 GMT) Lon: -74.8
Time Zone: US/Eastern Elev: 1404 ft

Show me the last for .
Show Decoded

2017-12-17 16:12 METAR KMSV 172112Z AUTO 22003KT 10SM SCT020 BKN047 M03/M07 A3017 RMK AO2 FZRANO
                 =
2017-12-17 15:52 METAR KMSV 172052Z AUTO 00000KT 10SM BKN020 M02/M07 A3017 RMK AO2 FZRANO =
2017-12-17 14:56 METAR KMSV 171956Z AUTO 24004KT 10SM CLR M02/M07 A3017 RMK AO2 SLP238 T10221067
                 FZRANO =
2017-12-17 13:56 METAR KMSV 171856Z AUTO 24003KT 10SM OVC046 M02/M07 A3017 RMK AO2 SLP236
                 T10171067 FZRANO =
2017-12-17 12:56 METAR KMSV 171756Z AUTO 00000KT 10SM OVC044 M02/M07 A3018 RMK AO2 SLP241
                 T10171067 11017 21061 58016 FZRANO =
2017-12-17 11:56 METAR KMSV 171656Z AUTO 32004KT 10SM OVC046 M02/M07 A3020 RMK AO2 SLP248
                 T10171067 FZRANO =
2017-12-17 10:56 METAR KMSV 171556Z AUTO 31006KT 10SM FEW014 BKN033 OVC044 M03/M08 A3022 RMK AO2
                 SLP254 T10331078 FZRANO =
2017-12-17 10:17 METAR KMSV 171517Z AUTO 30005KT 10SM BKN014 OVC033 M04/M08 A3024 RMK AO2 FZRANO
                 =
2017-12-17 09:56 METAR KMSV 171456Z AUTO 30005KT 10SM OVC033 M04/M08 A3023 RMK AO2 SLP259
                 T10441083 51012 FZRANO =
2017-12-17 08:56 METAR KMSV 171356Z AUTO 30005KT 10SM BKN035 OVC050 M05/M09 A3023 RMK AO2 SLP258
                 T10501089 FZRANO =
2017-12-17 07:56 METAR KMSV 171256Z AUTO 27003KT 10SM OVC031 M06/M09 A3022 RMK AO2 SLP254
                 T10611089 FZRANO =
2017-12-17 07:23 METAR KMSV 171223Z AUTO 27003KT 10SM SCT028 OVC035 M06/M09 A3022 RMK AO2 FZRANO
                 TSNO =
2017-12-17 06:56 METAR KMSV 171156Z AUTO 30003KT 10SM OVC028 M06/M09 A3020 RMK AO2 SLP247
                 T10611089 11056 21061 55002 FZRANO =
2017-12-17 05:56 METAR KMSV 171056Z AUTO 31004KT 10SM OVC028 M06/M09 A3018 RMK AO2 SLP242
                 T10611089 FZRANO =
2017-12-17 04:56 METAR KMSV 170956Z AUTO 29005KT 10SM OVC019 M06/M09 A3020 RMK AO2 SLP246
                 T10611089 FZRANO =
2017-12-17 03:56 METAR KMSV 170856Z AUTO 26005KT 10SM BKN021 OVC037 M06/M09 A3020 RMK AO2 SLP248
                 T10561089 53021 FZRANO =
2017-12-17 03:39 METAR KMSV 170839Z AUTO 28005KT 10SM SCT023 OVC037 M06/M09 A3019 RMK AO2 FZRANO
                 =
2017-12-17 02:56 METAR KMSV 170756Z AUTO 25004KT 10SM OVC025 M06/M08 A3018 RMK AO2 SLP241
                 T10561083 FZRANO =
2017-12-17 02:11 METAR KMSV 170711Z AUTO 27003KT 10SM BKN025 OVC033 M06/M08 A3016 RMK AO2 FZRANO
                 =
2017-12-17 01:56 METAR KMSV 170656Z AUTO 26003KT 10SM SCT025 OVC036 M06/M08 A3016 RMK AO2 SLP233
                 T10561083 FZRANO =
2017-12-17 00:56 METAR KMSV 170556Z AUTO 00000KT 10SM OVC041 M06/M08 A3014 RMK AO2 SLP226 60000
                 T10561083 11039 21061 50004 FZRANO =
2017-12-16 23:56 METAR KMSV 170456Z AUTO 00000KT 10SM OVC032 M06/M08 A3014 RMK AO2 SLP227
                 T10611078 410221111 FZRANO =
2017-12-16 22:56 METAR KMSV 170356Z AUTO 00000KT 10SM OVC021 M06/M08 A3013 RMK AO2 SLP226
                 T10561078 FZRANO =
2017-12-16 21:56 METAR KMSV 170256Z AUTO 00000KT 10SM BKN025 OVC033 M06/M08 A3013 RMK AO2 SLP223
                 60000 T10561078 51024 FZRANO =
2017-12-16 21:29 METAR KMSV 170229Z AUTO 29003KT 10SM BKN023 OVC035 M05/M07 A3012 RMK AO2 FZRANO
                 =
2017-12-16 20:56 METAR KMSV 170156Z AUTO 26003KT 10SM OVC033 M05/M08 A3011 RMK AO2 SLP218
                 T10501078 FZRANO =
2017-12-16 19:56 METAR KMSV 170056Z AUTO 30007KT 10SM OVC060 M04/M08 A3009 RMK AO2 SNE33 SLP211
                 P0000 T10441078 FZRANO =
2017-12-16 18:56 METAR KMSV 162356Z AUTO 29008KT 9SM -SN BKN045 OVC055 M04/M06 A3005 RMK AO2
                 SLP198 P0000 60000 T10391061 11022 21039 51035 FZRANO =
2017-12-16 17:56 METAR KMSV 162256Z AUTO 29009G15KT 9SM -SN FEW050 M04/M07 A3002 RMK AO2 SLP188
                 P0000 T10391067 FZRANO =
2017-12-16 16:56 METAR KMSV 162156Z AUTO 29007KT 4SM -SN BR FEW031 M03/M05 A2998 RMK AO2 SLP175
                 P0000 T10331050 FZRANO =
2017-12-16 16:28 METAR KMSV 162128Z AUTO 29006KT 3SM -SN BR SCT023 SCT031 OVC041 M03/M04 A2997
                 RMK AO2 P0000 FZRANO =

Support USWX by starting your Amazon purchase here.